createdAt,value
2022-11-14T00:00:02.947Z,15.27
2022-11-14T00:02:49.351Z,15.88
2022-11-14T00:05:40.458Z,12.32
2022-11-14T00:08:27.354Z,20.80
2022-11-14T00:11:14.437Z,14.80
2022-11-14T00:14:00.816Z,16.08
2022-11-14T00:16:49.135Z,17.60
2022-11-14T00:19:35.480Z,14.85
2022-11-14T00:22:21.774Z,16.67
2022-11-14T00:25:09.008Z,13.70
2022-11-14T00:27:57.951Z,15.65
2022-11-14T00:30:47.944Z,17.85
2022-11-14T00:33:35.692Z,16.95
2022-11-14T00:36:21.929Z,16.90
2022-11-14T00:39:08.577Z,13.63
2022-11-14T00:41:54.809Z,16.02
2022-11-14T00:44:41.341Z,15.45
2022-11-14T00:47:27.873Z,16.15
2022-11-14T00:50:17.218Z,13.25
2022-11-14T00:53:03.852Z,16.73
2022-11-14T00:55:50.843Z,18.38
2022-11-14T00:58:37.359Z,14.43
2022-11-14T01:01:23.659Z,13.38
2022-11-14T01:04:10.400Z,15.05
2022-11-14T01:06:58.276Z,15.40
2022-11-14T01:09:44.717Z,15.95
2022-11-14T01:12:31.302Z,16.30
2022-11-14T01:15:18.049Z,14.38
2022-11-14T01:18:04.450Z,12.40
2022-11-14T01:20:51.144Z,14.25
2022-11-14T01:23:39.634Z,14.85
2022-11-14T01:26:25.949Z,14.52
2022-11-14T01:29:12.464Z,14.98
2022-11-14T01:31:58.992Z,14.18
2022-11-14T01:34:45.214Z,15.65
2022-11-14T01:37:31.907Z,13.85
2022-11-14T01:40:19.954Z,15.75
2022-11-14T01:43:30.724Z,15.65
2022-11-14T01:46:21.859Z,14.73
2022-11-14T01:49:14.403Z,16.35
2022-11-14T01:52:03.964Z,14.85
2022-11-14T01:54:52.307Z,15.27
2022-11-14T01:57:42.526Z,17.13
2022-11-14T02:00:29.232Z,13.35
2022-11-14T02:03:16.771Z,17.13
2022-11-14T02:06:04.383Z,13.48
2022-11-14T02:08:52.326Z,15.73
2022-11-14T02:11:41.247Z,14.48
2022-11-14T02:19:16.883Z,14.85
2022-11-14T02:22:04.659Z,15.63
2022-11-14T02:24:51.003Z,16.67
2022-11-14T02:27:38.799Z,18.08
2022-11-14T02:30:25.337Z,18.25
2022-11-14T02:33:11.982Z,16.40
2022-11-14T02:35:58.335Z,17.08
2022-11-14T02:38:46.037Z,16.02
2022-11-14T02:41:32.429Z,13.65
2022-11-14T02:44:19.163Z,15.85
2022-11-14T02:47:05.587Z,13.30
2022-11-14T02:49:52.528Z,14.13
2022-11-14T02:52:38.854Z,17.13
2022-11-14T02:55:26.447Z,18.25
2022-11-14T02:58:13.167Z,18.05
2022-11-14T03:01:19.796Z,16.10
2022-11-14T03:04:06.415Z,18.98
2022-11-14T03:06:52.713Z,15.60
2022-11-14T03:09:39.317Z,18.05
2022-11-14T03:12:27.293Z,17.75
2022-11-14T03:15:13.940Z,15.90
2022-11-14T03:18:00.396Z,15.85
2022-11-14T03:20:47.038Z,16.90
2022-11-14T03:23:33.763Z,23.02
2022-11-14T03:26:20.598Z,16.52
2022-11-14T03:29:08.768Z,17.98
2022-11-14T03:31:54.998Z,18.63
2022-11-14T03:34:41.290Z,21.48
2022-11-14T03:37:27.815Z,21.05
2022-11-14T03:40:14.275Z,23.15
2022-11-14T03:43:00.627Z,22.52
2022-11-14T03:45:49.186Z,15.85
2022-11-14T03:48:35.486Z,22.48
2022-11-14T03:51:22.081Z,22.38
2022-11-14T03:54:08.854Z,19.83
2022-11-14T03:56:55.354Z,24.25
2022-11-14T03:59:41.926Z,28.27
2022-11-14T04:02:30.038Z,28.58
2022-11-14T04:05:16.801Z,27.60
2022-11-14T04:08:05.849Z,25.85
2022-11-14T04:10:52.447Z,25.17
2022-11-14T04:13:39.021Z,26.70
2022-11-14T04:16:25.346Z,24.63
2022-11-14T04:19:13.315Z,29.83
2022-11-14T04:21:59.788Z,31.17
2022-11-14T04:24:46.273Z,32.80
2022-11-14T04:27:32.932Z,36.53
2022-11-14T04:30:19.820Z,32.55
2022-11-14T04:33:06.419Z,33.95
2022-11-14T04:35:54.308Z,33.05
2022-11-14T04:38:40.786Z,36.28
2022-11-14T04:41:27.237Z,34.60
2022-11-14T04:44:13.822Z,28.98
2022-11-14T04:47:00.094Z,34.28
2022-11-14T04:49:46.314Z,31.92
2022-11-14T04:52:33.939Z,34.08
2022-11-14T04:55:20.475Z,41.38
2022-11-14T04:58:06.977Z,44.65
2022-11-14T05:00:53.663Z,40.38
2022-11-14T05:03:40.263Z,39.33
2022-11-14T05:06:26.698Z,37.38
2022-11-14T05:09:14.528Z,44.13
2022-11-14T05:12:00.829Z,38.72
2022-11-14T05:14:47.118Z,46.33
2022-11-14T05:17:33.631Z,49.20
2022-11-14T05:20:20.381Z,38.20
2022-11-14T05:23:06.700Z,44.92
2022-11-14T05:26:01.909Z,47.05
2022-11-14T05:28:48.544Z,51.28
2022-11-14T05:31:35.293Z,47.33
2022-11-14T05:34:21.901Z,52.50
2022-11-14T05:37:08.698Z,54.60
2022-11-14T05:39:55.407Z,44.00
2022-11-14T05:42:43.350Z,41.47
2022-11-14T05:45:29.656Z,59.45
2022-11-14T05:48:16.057Z,59.85
2022-11-14T05:51:03.769Z,50.55
2022-11-14T05:53:50.144Z,60.53
2022-11-14T05:56:36.305Z,54.55
2022-11-14T05:59:24.329Z,60.97
2022-11-14T06:02:10.763Z,58.55
2022-11-14T06:04:57.263Z,51.40
2022-11-14T06:07:43.839Z,59.63
2022-11-14T06:10:30.795Z,56.45
2022-11-14T06:13:17.338Z,35.38
2022-11-14T06:16:07.101Z,53.30
2022-11-14T06:18:54.593Z,53.05
2022-11-14T06:21:41.003Z,57.13
2022-11-14T06:24:27.232Z,56.67
2022-11-14T06:27:13.838Z,49.03
2022-11-14T06:30:00.191Z,45.17
2022-11-14T06:32:48.013Z,59.78
2022-11-14T06:35:35.389Z,62.90
2022-11-14T06:38:21.868Z,62.08
2022-11-14T06:41:09.513Z,54.42
2022-11-14T06:43:56.293Z,55.38
2022-11-14T06:46:42.864Z,54.58
2022-11-14T06:49:30.719Z,56.42
2022-11-14T06:52:17.549Z,54.50
2022-11-14T06:55:04.116Z,62.20
2022-11-14T06:57:54.599Z,61.92
2022-11-14T07:00:40.870Z,59.65
2022-11-14T07:03:27.203Z,61.97
2022-11-14T07:06:17.038Z,57.42
2022-11-14T07:09:03.400Z,57.25
2022-11-14T07:11:49.814Z,66.63
2022-11-14T07:14:36.221Z,55.20
2022-11-14T07:17:25.976Z,63.97
2022-11-14T07:20:15.604Z,48.83
2022-11-14T07:23:03.431Z,64.07
2022-11-14T07:25:50.310Z,57.30
2022-11-14T07:28:37.105Z,51.60
2022-11-14T07:31:23.460Z,67.05
2022-11-14T07:34:11.185Z,63.58
2022-11-14T07:36:57.324Z,61.33
2022-11-14T07:39:45.982Z,70.25
2022-11-14T07:42:32.689Z,51.38
2022-11-14T07:45:20.334Z,65.57
2022-11-14T07:48:07.067Z,60.58
2022-11-14T07:50:53.611Z,59.53
2022-11-14T07:53:40.528Z,62.70
2022-11-14T07:56:28.397Z,66.40
2022-11-14T07:59:14.871Z,61.97
2022-11-14T08:02:01.570Z,65.28
2022-11-14T08:04:48.061Z,48.53
2022-11-14T08:07:34.758Z,52.78
2022-11-14T08:10:24.130Z,57.50
2022-11-14T08:16:18.875Z,42.60
2022-11-14T08:19:05.046Z,57.70
2022-11-14T08:21:51.533Z,53.88
2022-11-14T08:24:38.128Z,75.00
2022-11-14T08:27:24.943Z,67.10
2022-11-14T08:30:14.499Z,55.80
2022-11-14T08:33:03.174Z,56.83
2022-11-14T08:35:49.513Z,51.33
2022-11-14T08:38:36.018Z,46.35
2022-11-14T08:41:22.703Z,57.28
2022-11-14T08:44:09.304Z,55.58
2022-11-14T08:46:59.751Z,56.35
2022-11-14T08:49:46.053Z,57.90
2022-11-14T08:52:32.587Z,55.92
2022-11-14T08:55:19.398Z,59.97
2022-11-14T08:58:05.928Z,49.58
2022-11-14T09:00:52.583Z,57.08
2022-11-14T09:03:40.598Z,57.22
2022-11-14T09:06:27.398Z,59.17
2022-11-14T09:09:14.249Z,54.00
2022-11-14T09:12:00.586Z,59.40
2022-11-14T09:14:47.028Z,57.22
2022-11-14T09:17:33.779Z,60.13
2022-11-14T09:20:24.733Z,60.42
2022-11-14T09:23:13.261Z,55.10
2022-11-14T09:25:59.974Z,53.80
2022-11-14T09:28:46.682Z,59.45
2022-11-14T09:31:33.325Z,57.22
2022-11-14T09:34:20.191Z,59.78
2022-11-14T09:37:07.935Z,58.40
2022-11-14T09:39:54.465Z,62.22
2022-11-14T09:42:55.216Z,46.28
2022-11-14T09:45:44.522Z,57.38
2022-11-14T09:48:33.142Z,60.33
2022-11-14T09:51:21.596Z,62.80
2022-11-14T09:54:17.012Z,51.83
2022-11-14T09:57:03.810Z,50.13
2022-11-14T09:59:50.908Z,55.97
2022-11-14T10:02:44.237Z,59.90
2022-11-14T10:05:47.411Z,58.08
2022-11-14T10:08:48.765Z,57.42
2022-11-14T10:11:40.018Z,50.90
2022-11-14T10:14:57.038Z,54.25
2022-11-14T10:17:54.926Z,56.90
2022-11-14T10:20:45.509Z,59.28
2022-11-14T10:23:36.341Z,52.60
2022-11-14T10:26:30.016Z,54.35
2022-11-14T10:29:41.909Z,58.88
2022-11-14T10:32:37.096Z,48.30
2022-11-14T10:35:28.749Z,42.90
2022-11-14T10:38:23.557Z,46.03
2022-11-14T10:41:19.307Z,44.60
2022-11-14T10:44:11.986Z,55.55
2022-11-14T10:47:03.449Z,46.78
2022-11-14T10:49:52.864Z,49.58
2022-11-14T10:52:40.815Z,41.60
2022-11-14T10:55:50.076Z,46.03
2022-11-14T10:58:47.285Z,41.85
2022-11-14T11:01:37.704Z,47.95
2022-11-14T11:04:28.964Z,45.80
2022-11-14T11:07:42.011Z,50.03
2022-11-14T11:10:46.291Z,45.10
2022-11-14T11:13:35.022Z,42.85
2022-11-14T11:16:22.852Z,46.75
2022-11-14T11:19:16.769Z,48.40
2022-11-14T11:22:05.994Z,46.28
2022-11-14T11:24:52.377Z,49.00
2022-11-14T11:27:38.553Z,48.05
2022-11-14T11:30:25.040Z,48.25
2022-11-14T11:33:23.042Z,52.08
2022-11-14T11:36:16.339Z,48.35
2022-11-14T11:39:04.433Z,44.20
2022-11-14T11:45:01.224Z,43.92
2022-11-14T11:47:54.223Z,50.85
2022-11-14T11:50:41.645Z,39.25
2022-11-14T11:53:33.183Z,41.03
2022-11-14T11:56:25.973Z,50.83
2022-11-14T11:59:22.743Z,41.08
2022-11-14T12:02:21.454Z,42.58
2022-11-14T12:05:08.748Z,40.35
2022-11-14T12:08:00.712Z,39.47
2022-11-14T12:10:47.590Z,46.90
2022-11-14T12:13:58.934Z,48.78
2022-11-14T12:17:04.484Z,44.78
2022-11-14T12:20:35.913Z,50.17
2022-11-14T12:23:47.971Z,45.75
2022-11-14T12:26:46.066Z,42.58
2022-11-14T12:30:14.813Z,44.65
2022-11-14T12:33:05.159Z,46.35
2022-11-14T12:35:53.646Z,41.70
2022-11-14T12:38:44.864Z,38.28
2022-11-14T12:41:33.526Z,48.45
2022-11-14T12:44:32.603Z,45.17
2022-11-14T12:47:20.581Z,41.38
2022-11-14T12:50:30.996Z,47.15
2022-11-14T12:53:39.372Z,42.85
2022-11-14T12:56:52.618Z,41.38
2022-11-14T12:59:49.432Z,40.53
2022-11-14T13:03:03.243Z,43.67
2022-11-14T13:05:59.127Z,43.88
2022-11-14T13:08:59.839Z,39.63
2022-11-14T13:12:04.815Z,41.22
2022-11-14T13:15:10.504Z,42.65
2022-11-14T13:18:32.330Z,41.42
2022-11-14T13:21:45.068Z,45.28
2022-11-14T13:25:05.746Z,44.40
2022-11-14T13:28:18.922Z,45.72
2022-11-14T13:31:08.828Z,47.60
2022-11-14T13:33:59.089Z,45.78
2022-11-14T13:36:52.021Z,54.78
2022-11-14T13:39:42.795Z,43.70
2022-11-14T13:42:40.979Z,50.80
2022-11-14T13:45:53.517Z,42.42
2022-11-14T13:48:54.438Z,44.22
2022-11-14T13:51:43.779Z,49.00
2022-11-14T13:54:32.413Z,47.22
2022-11-14T13:57:24.032Z,41.47
2022-11-14T14:00:19.688Z,46.03
2022-11-14T14:03:19.956Z,46.00
2022-11-14T14:06:26.921Z,45.42
2022-11-14T14:09:24.118Z,50.17
2022-11-14T14:12:32.530Z,43.55
2022-11-14T14:15:23.717Z,42.63
2022-11-14T14:18:18.361Z,45.80
2022-11-14T14:21:09.833Z,48.47
2022-11-14T14:24:02.690Z,47.90
2022-11-14T14:26:58.751Z,46.90
2022-11-14T14:29:55.482Z,51.40
2022-11-14T14:32:42.262Z,46.28
2022-11-14T14:35:32.590Z,53.95
2022-11-14T14:38:24.430Z,48.40
2022-11-14T14:41:11.816Z,45.67
2022-11-14T14:43:58.245Z,59.00
2022-11-14T14:46:46.144Z,38.17
2022-11-14T14:49:36.500Z,51.50
2022-11-14T14:52:27.072Z,46.30
2022-11-14T14:55:21.711Z,46.63
2022-11-14T14:58:22.028Z,48.53
2022-11-14T15:01:13.023Z,44.97
2022-11-14T15:04:03.848Z,46.20
2022-11-14T15:06:51.284Z,54.53
2022-11-14T15:09:38.099Z,48.30
2022-11-14T15:12:25.263Z,57.53
2022-11-14T15:15:14.075Z,47.92
2022-11-14T15:18:03.798Z,49.80
2022-11-14T15:21:09.989Z,54.70
2022-11-14T15:24:01.440Z,45.38
2022-11-14T15:26:50.512Z,54.05
2022-11-14T15:29:37.214Z,59.58
2022-11-14T15:32:25.265Z,56.88
2022-11-14T15:35:26.890Z,53.95
2022-11-14T15:41:29.840Z,52.65
2022-11-14T15:44:30.331Z,57.13
2022-11-14T15:47:22.360Z,55.50
2022-11-14T15:50:24.531Z,54.60
2022-11-14T15:53:19.331Z,59.42
2022-11-14T15:56:09.302Z,57.45
2022-11-14T15:58:55.785Z,49.70
2022-11-14T16:01:43.210Z,52.78
2022-11-14T16:04:32.276Z,56.80
2022-11-14T16:07:19.731Z,49.95
2022-11-14T16:10:10.780Z,58.92
2022-11-14T16:12:58.512Z,53.90
2022-11-14T16:15:44.832Z,54.13
2022-11-14T16:18:31.207Z,53.92
2022-11-14T16:21:19.469Z,57.95
2022-11-14T16:24:06.811Z,62.00
2022-11-14T16:26:53.334Z,57.70
2022-11-14T16:29:41.270Z,57.30
2022-11-14T16:32:28.289Z,60.63
2022-11-14T16:35:15.725Z,44.28
2022-11-14T16:38:02.010Z,62.65
2022-11-14T16:40:48.307Z,54.28
2022-11-14T16:43:34.577Z,60.42
2022-11-14T16:46:22.467Z,59.10
2022-11-14T16:49:09.877Z,62.17
2022-11-14T16:51:58.363Z,61.05
2022-11-14T16:54:44.865Z,62.55
2022-11-14T16:57:31.130Z,62.28
2022-11-14T17:00:18.581Z,69.97
2022-11-14T17:03:06.489Z,63.72
2022-11-14T17:05:53.350Z,59.40
2022-11-14T17:08:39.854Z,65.40
2022-11-14T17:11:26.855Z,62.10
2022-11-14T17:14:13.423Z,64.05
2022-11-14T17:17:03.082Z,68.80
2022-11-14T17:19:51.208Z,66.18
2022-11-14T17:22:37.809Z,64.38
2022-11-14T17:25:24.661Z,61.35
2022-11-14T17:28:11.190Z,64.32
2022-11-14T17:30:57.713Z,63.10
2022-11-14T17:33:43.908Z,76.47
2022-11-14T17:36:32.258Z,64.78
2022-11-14T17:39:19.556Z,61.63
2022-11-14T17:42:07.311Z,59.67
2022-11-14T17:44:54.002Z,61.72
2022-11-14T17:47:40.358Z,61.08
2022-11-14T17:50:26.529Z,60.10
2022-11-14T17:53:14.394Z,60.72
2022-11-14T17:56:01.074Z,61.15
2022-11-14T17:58:47.966Z,69.03
2022-11-14T18:01:34.882Z,62.83
2022-11-14T18:04:21.855Z,69.80
2022-11-14T18:07:08.553Z,65.85
2022-11-14T18:09:56.417Z,67.65
2022-11-14T18:12:43.231Z,69.45
2022-11-14T18:15:29.976Z,66.43
2022-11-14T18:18:18.240Z,70.32
2022-11-14T18:21:09.118Z,56.28
2022-11-14T18:23:57.565Z,62.47
2022-11-14T18:26:45.482Z,62.58
2022-11-14T18:29:32.462Z,68.32
2022-11-14T18:32:18.847Z,69.10
2022-11-14T18:35:06.391Z,60.75
2022-11-14T18:37:52.944Z,76.32
2022-11-14T18:40:39.744Z,70.20
2022-11-14T18:43:32.089Z,69.25
2022-11-14T18:46:20.298Z,67.88
2022-11-14T18:49:06.600Z,69.25
2022-11-14T18:51:52.748Z,66.25
2022-11-14T18:54:40.148Z,75.60
2022-11-14T18:57:26.419Z,67.55
2022-11-14T19:00:16.216Z,63.95
2022-11-14T19:03:06.251Z,66.65
2022-11-14T19:05:52.898Z,64.95
2022-11-14T19:08:39.628Z,73.93
2022-11-14T19:11:43.408Z,62.42
2022-11-14T19:14:30.108Z,72.93
2022-11-14T19:17:20.813Z,58.92
2022-11-14T19:20:13.992Z,61.28
2022-11-14T19:23:01.632Z,71.05
2022-11-14T19:25:47.870Z,62.58
2022-11-14T19:28:34.505Z,71.95
2022-11-14T19:31:21.598Z,64.28
2022-11-14T19:34:10.071Z,52.88
2022-11-14T19:37:01.094Z,72.63
2022-11-14T19:39:48.072Z,81.60
2022-11-14T19:42:34.847Z,71.68
2022-11-14T19:45:21.454Z,70.30
2022-11-14T19:48:07.784Z,68.43
2022-11-14T19:51:02.114Z,66.85
2022-11-14T19:53:48.574Z,68.22
2022-11-14T19:56:35.027Z,77.65
2022-11-14T19:59:24.392Z,75.13
2022-11-14T20:02:14.004Z,77.60
2022-11-14T20:05:00.715Z,70.70
2022-11-14T20:07:48.938Z,65.40
2022-11-14T20:10:47.582Z,80.22
2022-11-14T20:13:36.459Z,64.55
2022-11-14T20:16:24.481Z,77.15
2022-11-14T20:19:11.526Z,64.97
2022-11-14T20:21:58.065Z,73.78
2022-11-14T20:24:46.236Z,70.60
2022-11-14T20:27:33.093Z,74.25
2022-11-14T20:30:20.069Z,70.05
2022-11-14T20:33:06.619Z,65.72
2022-11-14T20:35:53.247Z,69.30
2022-11-14T20:38:39.955Z,73.85
2022-11-14T20:41:27.912Z,75.15
2022-11-14T20:44:14.486Z,72.20
2022-11-14T20:47:00.801Z,81.50
2022-11-14T20:49:47.529Z,68.15
2022-11-14T20:52:35.321Z,59.58
2022-11-14T20:55:22.079Z,70.22
2022-11-14T20:58:10.381Z,75.97
2022-11-14T21:00:56.817Z,73.03
2022-11-14T21:03:43.729Z,68.28
2022-11-14T21:06:30.907Z,78.32
2022-11-14T21:09:17.227Z,81.65
2022-11-14T21:12:03.887Z,76.30
2022-11-14T21:14:51.677Z,75.40
2022-11-14T21:17:37.910Z,73.95
2022-11-14T21:20:24.554Z,80.03
2022-11-14T21:23:10.858Z,71.18
2022-11-14T21:26:07.901Z,73.90
2022-11-14T21:28:55.886Z,53.28
2022-11-14T21:31:44.930Z,86.40
2022-11-14T21:34:31.730Z,77.82
2022-11-14T21:37:17.978Z,70.78
2022-11-14T21:40:04.991Z,74.28
2022-11-14T21:42:51.430Z,71.60
2022-11-14T21:45:37.970Z,76.82
2022-11-14T21:48:25.617Z,69.85
2022-11-14T21:51:13.821Z,76.35
2022-11-14T21:54:02.671Z,59.47
2022-11-14T21:56:49.224Z,78.18
2022-11-14T21:59:36.644Z,72.38
2022-11-14T22:02:40.954Z,82.35
2022-11-14T22:05:28.921Z,83.57
2022-11-14T22:08:16.130Z,77.93
2022-11-14T22:11:03.073Z,84.65
2022-11-14T22:13:49.956Z,69.63
2022-11-14T22:16:36.555Z,76.30
2022-11-14T22:19:23.331Z,74.50
2022-11-14T22:22:11.025Z,76.65
2022-11-14T22:24:57.628Z,83.35
2022-11-14T22:27:43.925Z,69.43
2022-11-14T22:30:30.343Z,84.43
2022-11-14T22:33:16.891Z,75.95
2022-11-14T22:36:05.489Z,60.72
2022-11-14T22:38:54.967Z,65.18
2022-11-14T22:41:41.388Z,74.43
2022-11-14T22:44:27.830Z,68.72
2022-11-14T22:47:14.422Z,75.95
2022-11-14T22:50:00.954Z,82.45
2022-11-14T22:52:47.478Z,61.50
2022-11-14T22:55:35.001Z,78.93
2022-11-14T22:58:21.385Z,77.95
2022-11-14T23:01:12.335Z,86.93
2022-11-14T23:03:59.835Z,74.65
2022-11-14T23:06:46.661Z,79.07
2022-11-14T23:09:33.273Z,66.28
2022-11-14T23:12:21.196Z,76.72
2022-11-14T23:15:08.308Z,73.32
2022-11-14T23:17:55.017Z,81.07
2022-11-14T23:20:41.637Z,77.05
2022-11-14T23:23:28.575Z,72.97
2022-11-14T23:26:17.559Z,70.28
2022-11-14T23:29:05.796Z,86.50
2022-11-14T23:31:52.267Z,79.10
2022-11-14T23:34:38.856Z,61.67
2022-11-14T23:37:25.141Z,78.00
2022-11-14T23:40:12.636Z,79.57
2022-11-14T23:42:59.233Z,79.57
2022-11-14T23:45:48.198Z,70.80
2022-11-14T23:48:34.858Z,70.72
2022-11-14T23:51:21.568Z,73.22
2022-11-14T23:54:07.833Z,63.58
2022-11-14T23:56:54.347Z,78.15
2022-11-14T23:59:40.665Z,73.18
